createdAt,value
2018-09-20T00:00:26.034Z,88.88
2018-09-20T00:01:26.031Z,88.98
2018-09-20T00:02:26.021Z,88.98
2018-09-20T00:03:26.016Z,89.07
2018-09-20T00:04:26.016Z,89.07
2018-09-20T00:05:26.007Z,89.26
2018-09-20T00:06:26.004Z,89.36
2018-09-20T00:07:26.002Z,88.98
2018-09-20T00:08:26.001Z,89.17
2018-09-20T00:09:25.990Z,88.98
2018-09-20T00:10:25.995Z,88.98
2018-09-20T00:11:25.986Z,89.17
2018-09-20T00:12:25.976Z,89.17
2018-09-20T00:13:25.972Z,89.07
2018-09-20T00:14:25.968Z,89.07
2018-09-20T00:15:25.966Z,89.17
2018-09-20T00:16:26.001Z,89.36
2018-09-20T00:17:25.954Z,89.07
2018-09-20T00:18:25.950Z,89.07
2018-09-20T00:19:25.945Z,88.88
2018-09-20T00:20:26.193Z,89.36
2018-09-20T00:22:25.937Z,89.22
2018-09-20T00:24:25.931Z,89.12
2018-09-20T00:25:25.919Z,89.32
2018-09-20T00:26:25.917Z,89.22
2018-09-20T00:27:25.909Z,89.12
2018-09-20T00:28:25.907Z,89.03
2018-09-20T00:29:25.902Z,89.12
2018-09-20T00:30:25.899Z,89.41
2018-09-20T00:31:25.641Z,89.12
2018-09-20T00:32:25.636Z,89.22
2018-09-20T00:33:25.890Z,89.89
2018-09-20T00:34:25.881Z,89.89
2018-09-20T00:35:25.875Z,89.41
2018-09-20T00:36:25.875Z,89.51
2018-09-20T00:37:25.875Z,89.32
2018-09-20T00:38:25.867Z,89.22
2018-09-20T00:39:25.861Z,89.12
2018-09-20T00:40:25.854Z,89.12
2018-09-20T00:41:25.850Z,89.32
2018-09-20T00:42:25.842Z,89.22
2018-09-20T00:43:25.842Z,89.32
2018-09-20T00:44:25.834Z,89.32
2018-09-20T00:45:25.829Z,89.51
2018-09-20T00:46:25.828Z,89.51
2018-09-20T00:47:25.820Z,89.32
2018-09-20T00:48:25.816Z,89.22
2018-09-20T00:49:25.810Z,89.03
2018-09-20T00:50:25.807Z,89.32
2018-09-20T00:51:26.052Z,89.41
2018-09-20T00:52:25.797Z,89.41
2018-09-20T00:53:25.792Z,89.7
2018-09-20T00:54:25.788Z,89.89
2018-09-20T00:55:25.787Z,89.89
2018-09-20T00:56:25.778Z,89.79
2018-09-20T00:57:25.774Z,89.99
2018-09-20T00:58:25.772Z,89.79
2018-09-20T00:59:25.765Z,89.7
2018-09-20T01:00:25.779Z,89.89
2018-09-20T01:01:25.757Z,89.89
2018-09-20T01:02:25.752Z,89.7
2018-09-20T01:03:25.746Z,89.79
2018-09-20T01:04:25.742Z,89.7
2018-09-20T01:05:25.743Z,89.51
2018-09-20T01:06:25.741Z,89.79
2018-09-20T01:07:25.730Z,89.89
2018-09-20T01:08:25.724Z,89.99
2018-09-20T01:09:25.722Z,89.79
2018-09-20T01:10:25.717Z,89.79
2018-09-20T01:11:25.710Z,89.7
2018-09-20T01:12:25.707Z,89.79
2018-09-20T01:13:25.702Z,89.61
2018-09-20T01:14:25.698Z,89.51
2018-09-20T01:15:25.694Z,89.41
2018-09-20T01:16:25.688Z,89.41
2018-09-20T01:17:25.685Z,89.89
2018-09-20T01:18:25.679Z,89.79
2018-09-20T01:19:25.675Z,89.99
2018-09-20T01:20:25.677Z,89.61
2018-09-20T01:21:25.666Z,89.79
2018-09-20T01:22:25.660Z,89.79
2018-09-20T01:23:25.656Z,90.28
2018-09-20T01:24:25.651Z,89.99
2018-09-20T01:25:25.657Z,90.08
2018-09-20T01:26:25.645Z,90.08
2018-09-20T01:27:25.648Z,90.28
2018-09-20T01:28:25.635Z,89.79
2018-09-20T01:29:25.377Z,89.79
2018-09-20T01:30:25.624Z,89.61
2018-09-20T01:31:25.619Z,89.61
2018-09-20T01:32:25.614Z,89.51
2018-09-20T01:33:25.614Z,89.41
2018-09-20T01:34:25.607Z,89.51
2018-09-20T01:35:25.772Z,89.89
2018-09-20T01:36:25.597Z,89.89
2018-09-20T01:37:25.599Z,89.7
2018-09-20T01:38:25.588Z,89.61
2018-09-20T01:39:25.594Z,89.51
2018-09-20T01:40:25.577Z,89.7
2018-09-20T01:41:25.573Z,89.61
2018-09-20T01:42:25.571Z,89.7
2018-09-20T01:43:25.572Z,89.7
2018-09-20T01:44:25.559Z,89.41
2018-09-20T01:45:25.556Z,89.61
2018-09-20T01:46:25.550Z,89.79
2018-09-20T01:47:25.543Z,89.89
2018-09-20T01:48:25.544Z,89.51
2018-09-20T01:49:25.283Z,89.61
2018-09-20T01:50:25.536Z,89.41
2018-09-20T01:51:25.527Z,89.7
2018-09-20T01:52:25.522Z,89.32
2018-09-20T01:53:25.517Z,89.12
2018-09-20T01:54:25.260Z,89.41
2018-09-20T01:55:25.511Z,88.93
2018-09-20T01:56:25.502Z,88.93
2018-09-20T01:57:25.500Z,89.12
2018-09-20T01:58:25.242Z,89.12
2018-09-20T01:59:25.491Z,89.03
2018-09-20T02:00:25.484Z,89.03
2018-09-20T02:01:25.485Z,89.32
2018-09-20T02:02:25.222Z,88.93
2018-09-20T02:03:25.471Z,89.12
2018-09-20T02:04:25.467Z,88.55
2018-09-20T02:05:25.464Z,88.88
2018-09-20T02:06:25.460Z,88.79
2018-09-20T02:07:25.456Z,88.79
2018-09-20T02:08:25.196Z,88.4
2018-09-20T02:09:25.445Z,88.11
2018-09-20T02:10:25.187Z,88.49
2018-09-20T02:11:25.435Z,88.31
2018-09-20T02:12:25.429Z,88.4
2018-09-20T02:13:25.425Z,88.59
2018-09-20T02:14:25.421Z,88.11
2018-09-20T02:15:25.419Z,88.31
2018-09-20T02:16:25.414Z,88.4
2018-09-20T02:17:25.407Z,88.31
2018-09-20T02:18:25.402Z,88.31
2018-09-20T02:19:25.398Z,88.31
2018-09-20T02:20:25.393Z,88.59
2018-09-20T02:21:25.388Z,88.69
2018-09-20T02:22:25.385Z,88.4
2018-09-20T02:23:25.129Z,88.21
2018-09-20T02:24:25.377Z,87.82
2018-09-20T02:25:25.371Z,87.82
2018-09-20T02:26:25.370Z,88.02
2018-09-20T02:27:25.111Z,88.11
2018-09-20T02:28:25.361Z,88.11
2018-09-20T02:29:25.352Z,87.73
2018-09-20T02:30:25.101Z,87.73
2018-09-20T02:31:25.349Z,87.73
2018-09-20T02:32:25.344Z,87.54
2018-09-20T02:33:25.335Z,87.92
2018-09-20T02:34:25.337Z,87.73
2018-09-20T02:35:25.329Z,87.73
2018-09-20T02:36:25.323Z,87.63
2018-09-20T02:37:25.324Z,87.82
2018-09-20T02:38:25.325Z,87.54
2018-09-20T02:39:25.308Z,87.73
2018-09-20T02:40:25.393Z,87.73
2018-09-20T02:41:25.305Z,87.54
2018-09-20T02:42:25.298Z,87.82
2018-09-20T02:43:25.293Z,87.82
2018-09-20T02:44:25.044Z,87.73
2018-09-20T02:45:25.031Z,88.31
2018-09-20T02:46:25.285Z,87.82
2018-09-20T02:47:25.277Z,87.82
2018-09-20T02:48:25.018Z,87.92
2018-09-20T02:49:25.265Z,87.82
2018-09-20T02:50:25.262Z,87.82
2018-09-20T02:51:25.270Z,87.73
2018-09-20T02:52:25.251Z,87.54
2018-09-20T02:53:25.250Z,87.54
2018-09-20T02:54:25.243Z,87.54
2018-09-20T02:55:24.996Z,87.92
2018-09-20T02:56:25.235Z,87.63
2018-09-20T02:57:25.231Z,87.73
2018-09-20T02:58:25.225Z,87.92
2018-09-20T02:59:25.222Z,87.73
2018-09-20T03:00:24.974Z,87.73
2018-09-20T03:01:25.213Z,87.82
2018-09-20T03:02:25.208Z,87.54
2018-09-20T03:03:25.204Z,87.82
2018-09-20T03:04:25.198Z,88.11
2018-09-20T03:05:25.195Z,87.82
2018-09-20T03:06:25.191Z,87.73
2018-09-20T03:07:25.189Z,88.4
2018-09-20T03:08:25.184Z,88.49
2018-09-20T03:09:25.191Z,88.11
2018-09-20T03:10:25.175Z,88.31
2018-09-20T03:11:25.167Z,88.31
2018-09-20T03:12:25.161Z,88.49
2018-09-20T03:13:25.168Z,88.49
2018-09-20T03:14:25.155Z,88.31
2018-09-20T03:15:25.149Z,88.31
2018-09-20T03:16:25.147Z,88.21
2018-09-20T03:17:25.140Z,88.21
2018-09-20T03:18:25.147Z,88.49
2018-09-20T03:19:25.145Z,88.49
2018-09-20T03:20:25.130Z,88.07
2018-09-20T03:21:25.122Z,88.26
2018-09-20T03:22:25.117Z,88.55
2018-09-20T03:23:25.120Z,88.35
2018-09-20T03:24:25.109Z,88.26
2018-09-20T03:25:25.109Z,88.26
2018-09-20T03:26:25.103Z,88.26
2018-09-20T03:27:25.395Z,88.45
2018-09-20T03:28:25.092Z,88.35
2018-09-20T03:29:25.092Z,88.07
2018-09-20T03:30:25.298Z,88.93
2018-09-20T03:31:25.093Z,88.74
2018-09-20T03:32:25.085Z,88.84
2018-09-20T03:33:25.069Z,88.65
2018-09-20T03:34:25.065Z,88.74
2018-09-20T03:35:25.062Z,88.74
2018-09-20T03:36:25.055Z,89.03
2018-09-20T03:37:25.052Z,88.84
2018-09-20T03:38:25.048Z,89.32
2018-09-20T03:39:24.790Z,89.03
2018-09-20T03:40:24.789Z,89.12
2018-09-20T03:41:25.034Z,89.32
2018-09-20T03:42:24.775Z,88.84
2018-09-20T03:43:25.028Z,88.93
2018-09-20T03:44:25.018Z,88.93
2018-09-20T03:45:25.015Z,88.84
2018-09-20T03:46:25.016Z,89.41
2018-09-20T03:47:25.003Z,89.03
2018-09-20T03:48:25.000Z,89.41
2018-09-20T03:49:24.748Z,88.93
2018-09-20T03:50:24.997Z,89.32
2018-09-20T03:51:24.733Z,89.32
2018-09-20T03:52:24.981Z,89.41
2018-09-20T03:53:24.976Z,89.7
2018-09-20T03:54:24.976Z,89.7
2018-09-20T03:55:24.968Z,89.7
2018-09-20T03:56:24.961Z,89.7
2018-09-20T03:57:24.959Z,89.89
2018-09-20T03:58:24.956Z,89.7
2018-09-20T03:59:24.946Z,89.61
2018-09-20T04:00:24.945Z,89.51
2018-09-20T04:01:24.940Z,89.79
2018-09-20T04:02:24.933Z,90.23
2018-09-20T04:03:24.928Z,90.33
2018-09-20T04:04:24.925Z,89.85
2018-09-20T04:05:24.924Z,89.85
2018-09-20T04:06:24.919Z,89.85
2018-09-20T04:07:24.914Z,90.33
2018-09-20T04:08:24.904Z,90.42
2018-09-20T04:09:24.904Z,90.23
2018-09-20T04:10:24.651Z,90.42
2018-09-20T04:11:24.640Z,90.23
2018-09-20T04:12:24.898Z,90.42
2018-09-20T04:13:24.884Z,90.42
2018-09-20T04:14:24.877Z,90.42
2018-09-20T04:15:24.879Z,90.33
2018-09-20T04:16:24.883Z,90.33
2018-09-20T04:17:24.878Z,90.33
2018-09-20T04:18:24.860Z,90.23
2018-09-20T04:19:24.855Z,90.71
2018-09-20T04:20:24.851Z,90.42
2018-09-20T04:21:24.592Z,90.71
2018-09-20T04:22:24.840Z,90.52
2018-09-20T04:23:24.843Z,90.81
2018-09-20T04:24:24.831Z,90.81
2018-09-20T04:25:24.827Z,90.81
2018-09-20T04:26:24.568Z,90.9
2018-09-20T04:27:24.822Z,90.71
2018-09-20T04:28:24.814Z,90.71
2018-09-20T04:29:24.809Z,90.61
2018-09-20T04:30:24.805Z,90.71
2018-09-20T04:31:24.795Z,90.52
2018-09-20T04:32:24.790Z,91.19
2018-09-20T04:33:24.799Z,91.38
2018-09-20T04:34:24.782Z,91.38
2018-09-20T04:35:24.788Z,91.19
2018-09-20T04:36:24.772Z,91.19
2018-09-20T04:37:24.768Z,91.19
2018-09-20T04:38:24.762Z,91.28
2018-09-20T04:39:24.764Z,90.9
2018-09-20T04:40:24.753Z,91.28
2018-09-20T04:41:24.748Z,90.9
2018-09-20T04:42:24.742Z,91.19
2018-09-20T04:43:24.738Z,91
2018-09-20T04:44:24.736Z,91.19
2018-09-20T04:45:24.736Z,91.38
2018-09-20T04:46:24.725Z,90.81
2018-09-20T04:47:24.466Z,91.09
2018-09-20T04:48:24.462Z,91.28
2018-09-20T04:49:24.708Z,91.19
2018-09-20T04:50:24.703Z,91.28
2018-09-20T04:51:24.699Z,91
2018-09-20T04:52:24.442Z,91
2018-09-20T04:53:24.841Z,91.19
2018-09-20T04:54:24.685Z,90.9
2018-09-20T04:55:24.681Z,90.9
2018-09-20T04:56:24.680Z,91
2018-09-20T04:57:24.671Z,90.71
2018-09-20T04:58:24.666Z,90.81
2018-09-20T04:59:24.662Z,91.57
2018-09-20T05:00:24.403Z,91.57
2018-09-20T05:01:24.650Z,91.67
2018-09-20T05:02:24.646Z,91.28
2018-09-20T05:03:24.641Z,91.38
2018-09-20T05:04:24.638Z,91.57
2018-09-20T05:05:24.631Z,91.48
2018-09-20T05:06:24.628Z,91.09
2018-09-20T05:07:24.621Z,91.28
2018-09-20T05:08:24.616Z,90.9
2018-09-20T05:09:24.677Z,91.05
2018-09-20T05:10:24.610Z,91.14
2018-09-20T05:11:24.654Z,91.42
2018-09-20T05:12:24.597Z,91.14
2018-09-20T05:13:24.596Z,90.75
2018-09-20T05:14:24.587Z,90.75
2018-09-20T05:15:24.331Z,90.75
2018-09-20T05:16:24.579Z,90.85
2018-09-20T05:17:24.576Z,90.37
2018-09-20T05:18:24.575Z,90.37
2018-09-20T05:19:24.566Z,89.99
2018-09-20T05:20:24.669Z,90.08
2018-09-20T05:21:24.558Z,89.79
2018-09-20T05:22:24.551Z,89.55
2018-09-20T05:23:24.606Z,89.75
2018-09-20T05:24:24.543Z,89.94
2018-09-20T05:25:24.539Z,89.75
2018-09-20T05:26:24.533Z,89.36
2018-09-20T05:27:24.536Z,89.46
2018-09-20T05:28:24.524Z,89.26
2018-09-20T05:29:24.527Z,89.26
2018-09-20T05:30:24.516Z,89.17
2018-09-20T05:31:24.512Z,89.07
2018-09-20T05:32:24.515Z,89.02
2018-09-20T05:33:24.370Z,88.73
2018-09-20T05:34:24.253Z,88.93
2018-09-20T05:35:24.641Z,88.16
2018-09-20T05:36:24.493Z,88.35
2018-09-20T05:37:24.486Z,88.54
2018-09-20T05:38:24.484Z,88.64
2018-09-20T05:39:24.480Z,88.83
2018-09-20T05:40:24.475Z,87.87
2018-09-20T05:41:24.474Z,87.82
2018-09-20T05:42:24.469Z,88.01
2018-09-20T05:43:24.528Z,87.92
2018-09-20T05:44:24.208Z,88.01
2018-09-20T05:45:24.457Z,87.24
2018-09-20T05:46:24.200Z,87.09
2018-09-20T05:47:24.449Z,86.99
2018-09-20T05:48:24.445Z,87.29
2018-09-20T05:49:24.440Z,87.29
2018-09-20T05:50:24.439Z,86.71
2018-09-20T05:51:24.434Z,85.94
2018-09-20T05:52:24.433Z,86.61
2018-09-20T05:53:24.178Z,86.71
2018-09-20T05:54:24.424Z,86.46
2018-09-20T05:55:24.429Z,86.36
2018-09-20T05:56:24.166Z,85.78
2018-09-20T05:57:24.417Z,85.6
2018-09-20T05:58:24.160Z,84.92
2018-09-20T05:59:24.596Z,84.83
2018-09-20T06:00:24.406Z,84.83
2018-09-20T06:01:24.401Z,85.06
2018-09-20T06:02:24.397Z,84.34
2018-09-20T06:03:24.394Z,84.19
2018-09-20T06:04:24.393Z,84.39
2018-09-20T06:05:24.403Z,84.19
2018-09-20T06:06:24.386Z,84.19
2018-09-20T06:07:24.383Z,83.33
2018-09-20T06:08:24.381Z,83.23
2018-09-20T06:09:24.379Z,83.52
2018-09-20T06:10:24.374Z,83.28
2018-09-20T06:11:24.371Z,83.28
2018-09-20T06:12:24.369Z,83.37
2018-09-20T06:13:24.466Z,82.79
2018-09-20T06:14:24.111Z,82.6
2018-09-20T06:15:24.371Z,82.93
2018-09-20T06:16:24.365Z,83.03
2018-09-20T06:17:24.354Z,82.35
2018-09-20T06:18:24.350Z,82.26
2018-09-20T06:19:24.351Z,81.87
2018-09-20T06:20:24.096Z,81.77
2018-09-20T06:21:24.344Z,81.77
2018-09-20T06:22:24.350Z,81.43
2018-09-20T06:23:24.344Z,81.43
2018-09-20T06:24:24.337Z,80.85
2018-09-20T06:25:24.335Z,80.94
2018-09-20T06:26:24.333Z,80.56
2018-09-20T06:27:24.331Z,80.37
2018-09-20T06:28:24.328Z,80.18
2018-09-20T06:29:24.326Z,79.93
2018-09-20T06:30:24.327Z,80.12
2018-09-20T06:31:24.325Z,79.64
2018-09-20T06:32:24.321Z,79.35
2018-09-20T06:33:24.319Z,79.35
2018-09-20T06:34:24.572Z,79.16
2018-09-20T06:35:24.318Z,79.06
2018-09-20T06:36:24.312Z,78.96
2018-09-20T06:37:24.311Z,78.52
2018-09-20T06:38:24.310Z,78.13
2018-09-20T06:39:24.309Z,77.75
2018-09-20T06:40:24.307Z,78.23
2018-09-20T06:41:24.310Z,77.46
2018-09-20T06:42:24.308Z,77.26
2018-09-20T06:43:24.301Z,76.92
2018-09-20T06:44:24.300Z,76.24
2018-09-20T06:45:24.299Z,75.27
2018-09-20T06:46:24.300Z,75.7
2018-09-20T06:47:24.298Z,75.12
2018-09-20T06:48:24.297Z,74.93
2018-09-20T06:49:24.299Z,74.29
2018-09-20T06:50:24.430Z,73.71
2018-09-20T06:51:24.292Z,73.32
2018-09-20T06:52:24.296Z,72.49
2018-09-20T06:53:24.293Z,72
2018-09-20T06:54:24.293Z,71.84
2018-09-20T06:55:24.041Z,70.98
2018-09-20T06:56:24.310Z,70.62
2018-09-20T06:57:24.300Z,70.53
2018-09-20T06:58:24.303Z,69.79
2018-09-20T06:59:24.296Z,69.21
2018-09-20T07:00:24.046Z,67.69
2018-09-20T07:01:24.047Z,67.21
2018-09-20T07:02:24.060Z,66.95
2018-09-20T07:03:24.426Z,65.89
2018-09-20T07:04:24.306Z,65.92
2018-09-20T07:05:24.054Z,65.24
2018-09-20T07:06:24.057Z,64.88
2018-09-20T07:07:24.311Z,64.88
2018-09-20T07:08:24.317Z,64.33
2018-09-20T07:09:24.318Z,63.75
2018-09-20T07:10:24.328Z,63.36
2018-09-20T07:11:24.324Z,63.07
2018-09-20T07:12:24.328Z,62.13
2018-09-20T07:13:24.331Z,61.65
2018-09-20T07:14:24.083Z,61.07
2018-09-20T07:15:24.340Z,60.48
2018-09-20T07:16:24.343Z,60.31
2018-09-20T07:17:24.348Z,60.41
2018-09-20T07:18:24.351Z,60.02
2018-09-20T07:19:24.356Z,59.64
2018-09-20T07:20:24.366Z,58.86
2018-09-20T07:21:24.364Z,59.34
2018-09-20T07:22:24.371Z,58.86
2018-09-20T07:23:24.373Z,58.37
2018-09-20T07:24:24.375Z,57.62
2018-09-20T07:25:24.718Z,57.53
2018-09-20T07:26:24.390Z,57.33
2018-09-20T07:27:24.143Z,56.77
2018-09-20T07:28:24.406Z,56.59
2018-09-20T07:29:24.409Z,56.77
2018-09-20T07:30:24.407Z,56.41
2018-09-20T07:31:24.413Z,55.83
2018-09-20T07:32:24.418Z,55.27
2018-09-20T07:33:24.425Z,55.5
2018-09-20T07:34:24.439Z,54.33
2018-09-20T07:35:24.437Z,53.28
2018-09-20T07:36:24.443Z,52.89
2018-09-20T07:37:24.449Z,52.04
2018-09-20T07:38:24.456Z,52.04
2018-09-20T07:39:24.463Z,51.39
2018-09-20T07:40:24.474Z,51.39
2018-09-20T07:41:24.475Z,50.99
2018-09-20T07:42:24.487Z,51.12
2018-09-20T07:43:24.577Z,50.04
2018-09-20T07:44:24.501Z,49.27
2018-09-20T07:45:24.506Z,48.22
2018-09-20T07:46:24.515Z,47.63
2018-09-20T07:47:24.523Z,47.73
2018-09-20T07:48:24.526Z,47.53
2018-09-20T07:49:24.535Z,47.14
2018-09-20T07:50:24.547Z,47.44
2018-09-20T07:51:24.551Z,47.14
2018-09-20T07:52:24.306Z,46.09
2018-09-20T07:53:24.567Z,46.09
2018-09-20T07:54:24.575Z,45.9
2018-09-20T07:55:24.585Z,45.9
2018-09-20T07:56:24.590Z,45.61
2018-09-20T07:57:24.898Z,45.78
2018-09-20T07:58:24.369Z,46.56
2018-09-20T07:59:24.614Z,47.05
2018-09-20T08:00:24.646Z,46.95
2018-09-20T08:01:24.667Z,46.56
2018-09-20T08:02:24.637Z,45.97
2018-09-20T08:03:24.391Z,46.44
2018-09-20T08:04:24.650Z,45.95
2018-09-20T08:05:24.658Z,46.92
2018-09-20T08:06:24.665Z,47.39
2018-09-20T08:07:24.674Z,47.49
2018-09-20T08:08:24.678Z,48.27
2018-09-20T08:09:24.685Z,47.78
2018-09-20T08:10:24.694Z,47.36
2018-09-20T08:11:24.706Z,47.46
2018-09-20T08:12:24.709Z,47.56
2018-09-20T08:13:24.710Z,47.66
2018-09-20T08:14:24.715Z,48.14
2018-09-20T08:15:24.474Z,47.95
2018-09-20T08:16:24.479Z,47.92
2018-09-20T08:17:24.734Z,48.32
2018-09-20T08:18:24.739Z,48.22
2018-09-20T08:19:24.743Z,48.02
2018-09-20T08:20:24.497Z,48.19
2018-09-20T08:21:24.817Z,48.19
2018-09-20T08:22:24.759Z,48.39
2018-09-20T08:23:24.764Z,48.58
2018-09-20T08:24:24.769Z,48.58
2018-09-20T08:25:24.521Z,48.85
2018-09-20T08:26:24.526Z,48.95
2018-09-20T08:27:24.531Z,48.95
2018-09-20T08:28:24.787Z,50.02
2018-09-20T08:29:24.790Z,49.73
2018-09-20T08:30:24.795Z,49.8
2018-09-20T08:31:24.806Z,49.8
2018-09-20T08:32:24.802Z,49.99
2018-09-20T08:33:24.806Z,50.19
2018-09-20T08:34:24.816Z,50.78
2018-09-20T08:35:24.815Z,50.87
2018-09-20T08:36:24.819Z,50.38
2018-09-20T08:37:24.902Z,50.38
2018-09-20T08:38:24.827Z,49.8
2018-09-20T08:39:24.830Z,50.09
2018-09-20T08:40:24.835Z,50.68
2018-09-20T08:41:24.841Z,50.36
2018-09-20T08:42:24.973Z,50.36
2018-09-20T08:43:24.849Z,50.36
2018-09-20T08:44:24.595Z,50.16
2018-09-20T08:45:24.850Z,50.07
2018-09-20T08:46:24.854Z,49.87
2018-09-20T08:47:24.856Z,49.78
2018-09-20T08:48:24.864Z,50.36
2018-09-20T08:49:24.611Z,50.46
2018-09-20T08:50:24.868Z,50.36
2018-09-20T08:51:24.869Z,50.36
2018-09-20T08:52:24.873Z,50.34
2018-09-20T08:53:24.624Z,50.24
2018-09-20T08:54:24.883Z,50.53
2018-09-20T08:55:24.881Z,50.63
2018-09-20T08:56:24.885Z,50.6
2018-09-20T08:57:24.888Z,50.99
2018-09-20T08:58:24.889Z,50.6
2018-09-20T08:59:24.893Z,50.73
2018-09-20T09:00:24.896Z,50.73
2018-09-20T09:01:24.650Z,51.11
2018-09-20T09:02:24.903Z,51.28
2018-09-20T09:03:24.905Z,50.6
2018-09-20T09:04:24.972Z,50.6
2018-09-20T09:05:24.912Z,50.8
2018-09-20T09:06:24.913Z,50.7
2018-09-20T09:07:24.915Z,50.8
2018-09-20T09:08:24.917Z,50.8
2018-09-20T09:09:24.919Z,50.92
2018-09-20T09:10:25.727Z,51.18
2018-09-20T09:11:24.928Z,51.18
2018-09-20T09:12:24.929Z,51.09
2018-09-20T09:13:24.935Z,50.99
2018-09-20T09:14:24.936Z,51.01
2018-09-20T09:15:24.936Z,50.63
2018-09-20T09:16:24.936Z,50.34
2018-09-20T09:17:24.939Z,50.63
2018-09-20T09:18:24.941Z,50.53
2018-09-20T09:19:24.962Z,50.21
2018-09-20T09:20:24.949Z,50.31
2018-09-20T09:21:24.949Z,50.43
2018-09-20T09:22:24.957Z,50.82
2018-09-20T09:23:24.953Z,50.34
2018-09-20T09:24:24.957Z,50.34
2018-09-20T09:25:24.959Z,50.24
2018-09-20T09:26:24.961Z,50.24
2018-09-20T09:27:24.962Z,50.34
2018-09-20T09:28:25.033Z,49.66
2018-09-20T09:29:24.967Z,50.04
2018-09-20T09:30:24.719Z,49.76
2018-09-20T09:31:24.720Z,49.66
2018-09-20T09:32:24.975Z,49.85
2018-09-20T09:33:24.980Z,49.76
2018-09-20T09:34:24.979Z,49.56
2018-09-20T09:35:24.729Z,49.85
2018-09-20T09:36:24.992Z,49.85
2018-09-20T09:37:24.987Z,49.76
2018-09-20T09:38:24.736Z,49.76
2018-09-20T09:39:24.994Z,49.76
2018-09-20T09:40:24.741Z,49.76
2018-09-20T09:41:25.247Z,49.76
2018-09-20T09:42:25.006Z,49.76
2018-09-20T09:43:24.999Z,49.76
2018-09-20T09:44:25.004Z,49.95
2018-09-20T09:45:25.007Z,49.76
2018-09-20T09:46:25.006Z,49.95
2018-09-20T09:47:25.011Z,49.66
2018-09-20T09:48:25.011Z,49.66
2018-09-20T09:49:25.012Z,49.76
2018-09-20T09:50:25.015Z,49.92
2018-09-20T09:51:24.767Z,49.85
2018-09-20T09:52:24.768Z,50.14
2018-09-20T09:53:25.022Z,49.46
2018-09-20T09:54:25.159Z,49.76
2018-09-20T09:55:25.027Z,49.95
2018-09-20T09:56:24.776Z,49.76
2018-09-20T09:57:25.030Z,49.76
2018-09-20T09:58:25.032Z,49.85
2018-09-20T09:59:25.035Z,49.66
2018-09-20T10:00:25.037Z,49.76
2018-09-20T10:01:25.040Z,49.85
2018-09-20T10:02:24.794Z,49.76
2018-09-20T10:03:25.045Z,49.07
2018-09-20T10:04:25.045Z,49.66
2018-09-20T10:05:25.048Z,49.37
2018-09-20T10:06:25.055Z,49.66
2018-09-20T10:07:24.841Z,49.19
2018-09-20T10:08:25.057Z,49.29
2018-09-20T10:09:25.056Z,49.19
2018-09-20T10:10:25.064Z,49.29
2018-09-20T10:11:25.061Z,48.61
2018-09-20T10:12:25.068Z,48.22
2018-09-20T10:13:25.268Z,48.41
2018-09-20T10:14:25.070Z,48.51
2018-09-20T10:15:25.074Z,48.25
2018-09-20T10:16:25.074Z,47.96
2018-09-20T10:17:25.077Z,47.86
2018-09-20T10:18:25.086Z,47.96
2018-09-20T10:19:24.831Z,47.96
2018-09-20T10:20:25.085Z,48.05
2018-09-20T10:21:25.090Z,47.88
2018-09-20T10:22:25.093Z,47.98
2018-09-20T10:23:25.092Z,47.88
2018-09-20T10:24:25.095Z,47.1
2018-09-20T10:25:25.104Z,47.1
2018-09-20T10:26:25.104Z,47
2018-09-20T10:27:24.854Z,47.13
2018-09-20T10:28:25.117Z,46.42
2018-09-20T10:29:25.110Z,47.42
2018-09-20T10:30:25.117Z,48.1
2018-09-20T10:31:24.880Z,47.98
2018-09-20T10:32:25.121Z,48.1
2018-09-20T10:33:25.126Z,47.42
2018-09-20T10:34:24.874Z,47.03
2018-09-20T10:35:25.129Z,46.93
2018-09-20T10:36:25.133Z,46.93
2018-09-20T10:37:25.137Z,47.13
2018-09-20T10:38:24.888Z,46.73
2018-09-20T10:39:25.144Z,47.13
2018-09-20T10:40:25.148Z,47.71
2018-09-20T10:41:25.150Z,48
2018-09-20T10:42:24.907Z,48.19
2018-09-20T10:43:25.407Z,48.27
2018-09-20T10:44:25.159Z,48.07
2018-09-20T10:45:25.166Z,47.78
2018-09-20T10:46:25.167Z,48.46
2018-09-20T10:47:24.918Z,48.29
2018-09-20T10:48:25.181Z,48.78
2018-09-20T10:49:25.178Z,48.66
2018-09-20T10:50:25.181Z,48.27
2018-09-20T10:51:25.191Z,48.49
2018-09-20T10:52:25.188Z,48.36
2018-09-20T10:53:25.189Z,48.39
2018-09-20T10:54:25.252Z,48.75
2018-09-20T10:55:25.194Z,48.78
2018-09-20T10:56:25.199Z,48.19
2018-09-20T10:57:25.202Z,48.27
2018-09-20T10:58:25.208Z,48.36
2018-09-20T10:59:25.208Z,48.27
2018-09-20T11:00:25.214Z,48.58
2018-09-20T11:01:25.215Z,48.56
2018-09-20T11:02:25.218Z,48.75
2018-09-20T11:03:25.412Z,49.73
2018-09-20T11:04:25.223Z,49.05
2018-09-20T11:05:25.231Z,48.56
2018-09-20T11:06:25.234Z,48.56
2018-09-20T11:07:25.232Z,48.66
2018-09-20T11:08:25.243Z,48.66
2018-09-20T11:09:25.246Z,48.85
2018-09-20T11:10:24.990Z,48.66
2018-09-20T11:11:25.246Z,48.85
2018-09-20T11:12:25.252Z,48.36
2018-09-20T11:13:25.250Z,48.27
2018-09-20T11:14:25.251Z,48.29
2018-09-20T11:15:25.259Z,48.46
2018-09-20T11:16:25.265Z,48.78
2018-09-20T11:17:25.263Z,48.36
2018-09-20T11:18:25.265Z,48.49
2018-09-20T11:19:25.269Z,48.58
2018-09-20T11:20:25.274Z,48.68
2018-09-20T11:21:25.278Z,48.68
2018-09-20T11:22:25.277Z,48.88
2018-09-20T11:23:25.281Z,48.97
2018-09-20T11:24:25.283Z,48.85
2018-09-20T11:25:25.287Z,48.66
2018-09-20T11:26:25.291Z,48.56
2018-09-20T11:27:25.293Z,48.88
2018-09-20T11:28:25.296Z,48.97
2018-09-20T11:29:25.303Z,48.75
2018-09-20T11:30:25.304Z,48.78
2018-09-20T11:31:25.305Z,48.29
2018-09-20T11:32:25.309Z,48.1
2018-09-20T11:33:25.312Z,48
2018-09-20T11:34:25.315Z,48.39
2018-09-20T11:35:25.321Z,48.39
2018-09-20T11:36:25.468Z,48.29
2018-09-20T11:37:25.326Z,48.29
2018-09-20T11:38:25.331Z,48.29
2018-09-20T11:39:25.331Z,48.29
2018-09-20T11:40:25.339Z,48.29
2018-09-20T11:41:25.338Z,47.9
2018-09-20T11:42:25.341Z,48.1
2018-09-20T11:43:25.342Z,47.9
2018-09-20T11:44:25.347Z,47.9
2018-09-20T11:45:25.098Z,48.29
2018-09-20T11:46:25.356Z,48.29
2018-09-20T11:47:25.356Z,47.9
2018-09-20T11:48:25.360Z,47.9
2018-09-20T11:49:25.363Z,47.73
2018-09-20T11:50:25.365Z,47.22
2018-09-20T11:51:25.116Z,47.05
2018-09-20T11:52:25.375Z,47.03
2018-09-20T11:53:25.380Z,46.93
2018-09-20T11:54:25.381Z,47.22
2018-09-20T11:55:25.385Z,47.73
2018-09-20T11:56:25.133Z,46.95
2018-09-20T11:57:25.388Z,47.25
2018-09-20T11:58:25.390Z,46.86
2018-09-20T11:59:25.394Z,47.13
2018-09-20T12:00:25.397Z,47.32
2018-09-20T12:01:25.581Z,47.61
2018-09-20T12:02:25.405Z,47.61
2018-09-20T12:03:25.410Z,47.61
2018-09-20T12:04:25.158Z,47.42
2018-09-20T12:05:25.416Z,47.22
2018-09-20T12:06:25.417Z,47.9
2018-09-20T12:07:25.423Z,47.32
2018-09-20T12:08:25.427Z,47.32
2018-09-20T12:09:25.435Z,46.93
2018-09-20T12:10:25.178Z,47.13
2018-09-20T12:11:25.434Z,47.13
2018-09-20T12:12:25.449Z,47.32
2018-09-20T12:13:25.440Z,47.61
2018-09-20T12:15:25.697Z,47.9
2018-09-20T12:16:25.448Z,47.9
2018-09-20T12:17:25.455Z,47.9
2018-09-20T12:18:25.460Z,48.29
2018-09-20T12:19:25.458Z,48.39
2018-09-20T12:20:25.463Z,48.29
2018-09-20T12:21:25.464Z,47.9
2018-09-20T12:22:25.217Z,47.9
2018-09-20T12:23:25.471Z,47.8
2018-09-20T12:24:25.473Z,47.8
2018-09-20T12:25:25.478Z,47.9
2018-09-20T12:26:25.480Z,47.9
2018-09-20T12:27:25.482Z,48
2018-09-20T12:28:25.485Z,48.19
2018-09-20T12:29:25.490Z,47.9
2018-09-20T12:30:25.240Z,48
2018-09-20T12:31:25.278Z,47.9
2018-09-20T12:32:25.695Z,48.19
2018-09-20T12:33:25.501Z,48.29
2018-09-20T12:34:25.510Z,48
2018-09-20T12:35:25.590Z,48.1
2018-09-20T12:36:25.510Z,48.1
2018-09-20T12:37:25.518Z,48
2018-09-20T12:38:25.519Z,48.19
2018-09-20T12:39:25.526Z,48
2018-09-20T12:40:25.526Z,48
2018-09-20T12:41:25.526Z,47.9
2018-09-20T12:42:25.527Z,47.9
2018-09-20T12:43:25.532Z,47.9
2018-09-20T12:44:25.282Z,48.22
2018-09-20T12:45:25.537Z,48
2018-09-20T12:46:25.540Z,48.19
2018-09-20T12:47:25.550Z,48.1
2018-09-20T12:48:25.665Z,47.52
2018-09-20T12:49:25.552Z,48.1
2018-09-20T12:50:25.562Z,47.9
2018-09-20T12:51:25.555Z,48.1
2018-09-20T12:52:25.558Z,47.83
2018-09-20T12:53:25.561Z,48.22
2018-09-20T12:54:25.564Z,48.1
2018-09-20T12:55:25.570Z,48.19
2018-09-20T12:56:25.570Z,48
2018-09-20T12:57:25.574Z,47.13
2018-09-20T12:58:25.577Z,47.15
2018-09-20T12:59:25.329Z,47.61